Time;durP1;ratioP1;P1;durP2;ratioP2;P2;SDS_P1;SDS_P2;PMS_P1;PMS_P2;Temp;Humidity;BMP_temperature;BMP_pressure;BME280_temperature;BME280_humidity;BME280_pressure;Samples;Min_cycle;Max_cycle;Signal;HPM_P1;HPM_P2
2023/09/27 00:01:16;;;;;;;10.88;2.80;;;;;;;15.38;100.00;100776.44;5023383;28;20040;-75
2023/09/27 00:04:00;;;;;;;7.32;2.53;;;;;;;15.36;100.00;100764.72;5022829;28;20044;-74
2023/09/27 00:06:44;;;;;;;7.80;3.03;;;;;;;15.35;100.00;100768.66;5021953;28;20048;-75
2023/09/27 00:09:31;;;;;;;6.38;2.70;;;;;;;15.38;100.00;100762.44;5015906;28;20107;-75
2023/09/27 00:12:15;;;;;;;7.63;2.53;;;;;;;15.32;100.00;100758.94;5025971;28;20047;-75
2023/09/27 00:15:02;;;;;;;6.75;3.00;;;;;;;15.32;100.00;100753.34;5021084;28;20044;-75
2023/09/27 00:17:48;;;;;;;7.13;2.60;;;;;;;15.30;100.00;100760.41;5042842;28;20044;-75
2023/09/27 00:20:32;;;;;;;5.90;2.65;;;;;;;15.28;100.00;100762.69;5042923;28;20051;-74
2023/09/27 00:23:16;;;;;;;7.97;2.83;;;;;;;15.25;100.00;100768.94;5034296;28;20072;-75
2023/09/27 00:26:00;;;;;;;9.63;2.63;;;;;;;15.19;100.00;100755.06;5040008;28;20099;-75
2023/09/27 00:28:44;;;;;;;10.20;3.00;;;;;;;15.24;100.00;100758.88;5041120;28;20600;-75
2023/09/27 00:31:28;;;;;;;7.13;2.30;;;;;;;15.20;100.00;100747.50;5041454;28;20040;-75
2023/09/27 00:34:12;;;;;;;8.38;2.65;;;;;;;15.22;100.00;100752.78;5021720;28;20068;-75
2023/09/27 00:36:57;;;;;;;6.65;2.70;;;;;;;15.20;100.00;100739.09;5055239;28;20048;-75
2023/09/27 00:39:41;;;;;;;8.77;2.90;;;;;;;15.15;100.00;100720.47;5041597;28;20495;-75
2023/09/27 00:42:27;;;;;;;8.15;2.67;;;;;;;15.10;100.00;100712.25;5041377;28;20040;-75
2023/09/27 00:45:11;;;;;;;6.05;2.58;;;;;;;15.08;100.00;100714.53;5040206;28;20051;-75
2023/09/27 00:47:55;;;;;;;9.85;2.83;;;;;;;15.10;100.00;100731.81;5028013;28;20040;-75
2023/09/27 00:50:40;;;;;;;9.23;2.78;;;;;;;15.09;100.00;100743.31;5035844;28;20049;-75
2023/09/27 00:53:26;;;;;;;6.85;2.60;;;;;;;15.10;100.00;100737.41;5040655;28;20048;-75
2023/09/27 00:56:10;;;;;;;7.97;2.55;;;;;;;15.08;100.00;100727.69;5041873;28;20048;-75
2023/09/27 00:58:54;;;;;;;8.93;2.75;;;;;;;15.05;100.00;100733.91;5041704;28;20036;-75
2023/09/27 01:01:39;;;;;;;7.10;2.60;;;;;;;15.06;100.00;100732.75;5029447;28;20040;-75
2023/09/27 01:04:23;;;;;;;10.68;3.00;;;;;;;15.05;100.00;100725.53;5040904;28;20071;-75
2023/09/27 01:07:07;;;;;;;6.90;2.83;;;;;;;15.04;100.00;100719.09;5040772;28;20044;-75
2023/09/27 01:09:51;;;;;;;9.02;2.70;;;;;;;15.00;100.00;100709.69;5051013;28;20043;-75
2023/09/27 01:12:38;;;;;;;8.60;2.70;;;;;;;15.00;100.00;100700.47;5026823;28;20060;-74
2023/09/27 01:15:22;;;;;;;8.35;2.65;;;;;;;15.01;100.00;100688.13;5034229;28;20036;-75
2023/09/27 01:18:07;;;;;;;7.25;2.50;;;;;;;15.00;100.00;100687.31;5025445;28;20044;-75
2023/09/27 01:20:51;;;;;;;12.23;2.70;;;;;;;14.97;100.00;100674.81;5008830;28;20103;-75
2023/09/27 01:23:36;;;;;;;7.53;2.42;;;;;;;14.98;100.00;100665.25;4989007;28;20096;-74
2023/09/27 01:26:20;;;;;;;11.02;2.85;;;;;;;15.00;100.00;100636.16;4997132;28;20127;-75
2023/09/27 01:29:05;;;;;;;10.07;2.90;;;;;;;14.95;100.00;100637.94;5027278;28;20040;-74
2023/09/27 01:31:49;;;;;;;8.77;3.05;;;;;;;14.94;100.00;100653.06;5025455;28;20137;-75
2023/09/27 01:34:33;;;;;;;13.52;3.40;;;;;;;14.92;100.00;100671.31;5017799;28;20071;-75
2023/09/27 01:37:17;;;;;;;9.32;2.97;;;;;;;14.94;100.00;100675.44;5013144;28;20057;-75
2023/09/27 01:40:01;;;;;;;9.20;3.40;;;;;;;14.93;100.00;100671.00;5024138;28;20142;-75
2023/09/27 01:42:45;;;;;;;7.40;2.90;;;;;;;14.93;100.00;100673.81;5027345;28;20056;-75
2023/09/27 01:45:30;;;;;;;12.60;2.90;;;;;;;14.94;100.00;100675.44;5009299;28;20048;-75
2023/09/27 01:48:14;;;;;;;8.32;3.28;;;;;;;14.93;100.00;100695.31;5020430;28;20172;-75
2023/09/27 01:50:58;;;;;;;12.70;3.67;;;;;;;14.95;100.00;100695.84;5034551;28;20386;-74
2023/09/27 01:53:42;;;;;;;9.98;3.08;;;;;;;14.94;100.00;100714.59;5005000;28;20041;-74
2023/09/27 01:56:26;;;;;;;10.35;3.63;;;;;;;14.91;100.00;100725.59;5019036;28;20072;-75
2023/09/27 01:59:10;;;;;;;10.13;3.22;;;;;;;14.89;100.00;100745.47;5020705;28;20451;-75
2023/09/27 02:01:54;;;;;;;12.25;3.38;;;;;;;14.92;100.00;100767.22;5017312;28;20047;-75
2023/09/27 02:04:38;;;;;;;10.23;3.10;;;;;;;14.91;100.00;100784.31;5021391;28;20107;-75
2023/09/27 02:07:22;;;;;;;7.75;3.10;;;;;;;14.92;100.00;100795.19;4988421;28;20073;-75
2023/09/27 02:10:09;;;;;;;14.40;3.35;;;;;;;14.93;100.00;100791.25;5014498;28;20096;-75
2023/09/27 02:12:53;;;;;;;11.43;3.35;;;;;;;14.94;100.00;100792.06;5024846;28;20056;-75
2023/09/27 02:15:37;;;;;;;7.47;2.92;;;;;;;14.91;100.00;100790.75;5040869;28;20044;-75
2023/09/27 02:18:21;;;;;;;10.35;3.13;;;;;;;14.93;100.00;100782.88;5041216;28;20036;-75
2023/09/27 02:21:06;;;;;;;9.13;3.13;;;;;;;14.93;100.00;100757.69;5055960;28;20593;-75
2023/09/27 02:23:50;;;;;;;7.97;2.90;;;;;;;14.94;100.00;100750.94;5041048;28;20379;-75
2023/09/27 02:26:35;;;;;;;7.72;2.85;;;;;;;14.94;100.00;100730.56;5038809;28;20082;-75
2023/09/27 02:29:20;;;;;;;7.50;3.10;;;;;;;14.92;100.00;100714.06;5015783;28;20044;-75
2023/09/27 02:32:05;;;;;;;9.10;3.22;;;;;;;14.94;100.00;100702.59;5039580;28;20420;-75
2023/09/27 02:34:49;;;;;;;8.27;2.83;;;;;;;14.93;100.00;100712.09;5043775;28;20071;-75
2023/09/27 02:37:33;;;;;;;9.82;3.33;;;;;;;14.93;100.00;100735.31;5047345;28;20098;-75
2023/09/27 02:40:17;;;;;;;9.85;3.70;;;;;;;14.91;100.00;100761.94;5044508;28;20114;-75
2023/09/27 02:43:01;;;;;;;12.95;3.55;;;;;;;14.94;100.00;100764.94;5059552;28;20063;-74
2023/09/27 02:45:45;;;;;;;11.32;3.30;;;;;;;14.94;100.00;100741.75;5030410;28;20031;-75
2023/09/27 02:48:29;;;;;;;11.45;3.45;;;;;;;14.94;100.00;100727.75;5031097;28;20044;-75
2023/09/27 02:51:15;;;;;;;11.60;3.15;;;;;;;14.96;100.00;100731.88;5044030;28;20040;-75
2023/09/27 02:53:59;;;;;;;8.75;3.30;;;;;;;14.96;100.00;100734.69;5034879;28;20049;-75
2023/09/27 02:56:44;;;;;;;8.75;3.15;;;;;;;14.93;100.00;100701.75;5031509;28;20114;-75
2023/09/27 02:59:29;;;;;;;8.55;3.30;;;;;;;14.92;100.00;100704.88;5044023;28;20044;-74
2023/09/27 03:02:13;;;;;;;9.15;2.95;;;;;;;14.93;100.00;100695.31;5024294;28;20567;-75
2023/09/27 03:04:58;;;;;;;7.72;3.25;;;;;;;14.89;100.00;100677.53;5044351;28;20039;-75
2023/09/27 03:07:44;;;;;;;13.05;3.70;;;;;;;14.89;100.00;100689.56;5043830;28;20094;-75
2023/09/27 03:10:28;;;;;;;9.20;3.38;;;;;;;14.93;100.00;100687.78;5030304;28;20099;-75
2023/09/27 03:13:12;;;;;;;9.52;3.20;;;;;;;14.94;100.00;100674.63;5019501;28;20129;-75
2023/09/27 03:15:56;;;;;;;11.10;3.17;;;;;;;14.96;100.00;100675.97;5010140;28;20087;-75
2023/09/27 03:18:42;;;;;;;10.57;3.45;;;;;;;14.92;100.00;100660.13;5023980;28;20467;-75
2023/09/27 03:21:29;;;;;;;9.68;3.38;;;;;;;14.89;100.00;100667.19;5013009;28;20076;-75
2023/09/27 03:24:13;;;;;;;11.77;3.25;;;;;;;14.90;100.00;100654.03;5023944;28;20081;-75
2023/09/27 03:26:57;;;;;;;8.13;2.92;;;;;;;14.90;100.00;100649.25;5019937;28;20111;-75
2023/09/27 03:29:42;;;;;;;9.23;3.55;;;;;;;14.90;100.00;100646.44;5017888;28;20096;-75
2023/09/27 03:32:26;;;;;;;10.00;3.03;;;;;;;14.87;100.00;100633.13;5009859;28;20115;-75
2023/09/27 03:35:10;;;;;;;10.55;3.35;;;;;;;14.88;100.00;100618.00;5021244;28;20060;-75
2023/09/27 03:37:56;;;;;;;9.93;3.33;;;;;;;14.85;100.00;100613.06;5017770;28;20041;-75
2023/09/27 03:40:41;;;;;;;8.32;2.95;;;;;;;14.83;100.00;100620.13;4989523;28;20129;-75
2023/09/27 03:43:25;;;;;;;9.48;3.40;;;;;;;14.85;100.00;100615.00;5020406;28;20084;-75
2023/09/27 03:46:09;;;;;;;10.60;3.13;;;;;;;14.81;100.00;100614.81;5038560;28;20178;-75
2023/09/27 03:48:53;;;;;;;10.85;3.42;;;;;;;14.80;100.00;100596.41;5006687;28;20076;-75
2023/09/27 03:51:37;;;;;;;10.40;3.38;;;;;;;14.80;100.00;100596.41;5021407;28;20040;-75
2023/09/27 03:54:22;;;;;;;10.10;3.55;;;;;;;14.78;100.00;100590.31;5010440;28;20469;-75
2023/09/27 03:57:06;;;;;;;8.88;3.40;;;;;;;14.86;100.00;100595.13;5021463;28;20121;-75
2023/09/27 03:59:50;;;;;;;12.63;3.15;;;;;;;14.80;100.00;100574.03;5016829;28;20117;-75
2023/09/27 04:02:34;;;;;;;15.27;4.35;;;;;;;14.77;100.00;100571.91;5000701;28;20610;-75
2023/09/27 04:05:23;;;;;;;10.27;3.78;;;;;;;14.76;100.00;100584.19;5023126;28;20117;-75
2023/09/27 04:08:07;;;;;;;7.78;3.42;;;;;;;14.82;100.00;100576.50;4998704;28;20071;-75
2023/09/27 04:10:51;;;;;;;9.73;3.50;;;;;;;14.79;100.00;100582.75;5005149;28;20458;-75
2023/09/27 04:13:35;;;;;;;11.43;3.58;;;;;;;14.73;100.00;100559.69;5042487;28;20060;-75
2023/09/27 04:16:19;;;;;;;10.65;4.63;;;;;;;14.70;100.00;100544.38;5023033;28;20099;-75
2023/09/27 04:19:04;;;;;;;16.17;4.75;;;;;;;14.70;100.00;100524.00;5038678;28;20126;-75
2023/09/27 04:21:48;;;;;;;14.15;4.55;;;;;;;14.69;100.00;100523.19;5028331;28;20071;-74
2023/09/27 04:24:32;;;;;;;20.27;5.85;;;;;;;14.68;100.00;100509.50;5002993;28;20047;-74
2023/09/27 04:27:15;;;;;;;18.27;5.78;;;;;;;14.64;100.00;100528.91;5054873;28;20051;-74
2023/09/27 04:30:00;;;;;;;19.77;4.75;;;;;;;14.65;100.00;100543.69;5057530;28;20159;-75
2023/09/27 04:32:44;;;;;;;18.20;5.50;;;;;;;14.65;100.00;100564.06;5046592;28;20068;-75
2023/09/27 04:35:28;;;;;;;16.50;5.05;;;;;;;14.72;100.00;100549.66;5041750;28;20075;-75
2023/09/27 04:38:12;;;;;;;14.07;4.68;;;;;;;14.66;100.00;100545.38;5042449;28;20068;-75
2023/09/27 04:40:56;;;;;;;17.05;5.63;;;;;;;14.65;100.00;100536.13;5042096;28;20099;-75
2023/09/27 04:43:41;;;;;;;19.40;4.82;;;;;;;14.66;100.00;100536.97;5015216;28;20550;-75
2023/09/27 04:46:26;;;;;;;15.95;4.65;;;;;;;14.73;100.00;100557.72;5042014;28;20075;-75
2023/09/27 04:49:09;;;;;;;16.80;4.38;;;;;;;14.70;100.00;100574.31;5030244;28;20040;-75
2023/09/27 04:51:54;;;;;;;15.38;4.70;;;;;;;14.73;100.00;100587.66;5008736;28;20068;-75
2023/09/27 04:54:38;;;;;;;15.80;4.68;;;;;;;14.72;100.00;100611.16;5024299;28;20072;-75
2023/09/27 04:57:23;;;;;;;14.18;4.60;;;;;;;14.72;100.00;100595.22;5027539;28;20090;-75
2023/09/27 05:00:13;;;;;;;15.35;4.30;;;;;;;14.76;100.00;100545.06;5021884;28;20044;-74
2023/09/27 05:02:58;;;;;;;13.13;4.38;;;;;;;14.73;100.00;100548.50;5054423;28;20055;-75
2023/09/27 05:05:42;;;;;;;15.23;4.85;;;;;;;14.74;100.00;100566.94;5027660;28;20523;-75
2023/09/27 05:08:26;;;;;;;16.55;4.18;;;;;;;14.72;100.00;100577.63;5056710;28;20036;-75
2023/09/27 05:11:10;;;;;;;13.95;4.28;;;;;;;14.70;100.00;100588.28;5039104;28;20047;-75
2023/09/27 05:13:54;;;;;;;10.35;3.90;;;;;;;14.71;100.00;100589.97;4975480;28;20140;-75
2023/09/27 05:16:38;;;;;;;12.38;4.22;;;;;;;14.70;100.00;100577.94;5035869;28;20122;-74
2023/09/27 05:19:22;;;;;;;14.52;4.20;;;;;;;14.69;100.00;100572.66;5007744;28;20044;-75
2023/09/27 05:22:06;;;;;;;14.05;3.97;;;;;;;14.67;100.00;100555.38;5021666;28;20064;-75
2023/09/27 05:24:50;;;;;;;14.77;5.03;;;;;;;14.60;100.00;100535.44;5021695;28;20080;-75
2023/09/27 05:27:34;;;;;;;14.25;4.90;;;;;;;14.60;100.00;100544.69;5008431;28;20116;-75
2023/09/27 05:30:21;;;;;;;11.00;3.97;;;;;;;14.59;100.00;100556.97;5021806;28;20373;-75
2023/09/27 05:33:05;;;;;;;12.77;4.47;;;;;;;14.60;100.00;100538.22;5010603;28;20564;-74
2023/09/27 05:35:50;;;;;;;10.23;3.90;;;;;;;14.58;100.00;100526.56;5002619;28;20102;-75
2023/09/27 05:38:34;;;;;;;12.13;3.85;;;;;;;14.52;100.00;100523.91;5019109;28;20064;-75
2023/09/27 05:41:18;;;;;;;13.07;4.60;;;;;;;14.51;100.00;100539.00;4994259;28;20049;-74
2023/09/27 05:44:03;;;;;;;15.23;4.28;;;;;;;14.53;100.00;100536.72;5036902;28;20040;-74
2023/09/27 05:46:47;;;;;;;13.00;3.47;;;;;;;14.51;100.00;100535.38;4994575;28;20131;-74
2023/09/27 05:49:31;;;;;;;12.40;4.22;;;;;;;14.48;100.00;100542.41;5020564;28;20066;-75
2023/09/27 05:52:17;;;;;;;14.32;3.95;;;;;;;14.43;100.00;100542.56;5001187;28;20049;-75
2023/09/27 05:55:05;;;;;;;11.57;4.13;;;;;;;14.40;100.00;100539.56;4994778;28;20107;-74
2023/09/27 05:57:49;;;;;;;16.02;4.43;;;;;;;14.40;100.00;100539.56;5018414;28;20048;-75
2023/09/27 06:00:38;;;;;;;12.32;4.55;;;;;;;14.37;100.00;100535.44;4993895;28;20040;-75
2023/09/27 06:03:22;;;;;;;12.77;4.22;;;;;;;14.37;100.00;100540.22;5004952;28;20077;-75
2023/09/27 06:06:06;;;;;;;10.52;4.15;;;;;;;14.37;100.00;100554.19;5022985;28;20044;-75
2023/09/27 06:08:51;;;;;;;11.07;3.97;;;;;;;14.34;100.00;100549.22;5032081;28;20094;-74
2023/09/27 06:11:35;;;;;;;10.95;4.47;;;;;;;14.34;100.00;100554.81;5019022;28;20086;-75
2023/09/27 06:14:21;;;;;;;11.77;4.20;;;;;;;14.32;100.00;100555.16;5016939;28;20206;-75
2023/09/27 06:17:05;;;;;;;10.02;3.80;;;;;;;14.31;100.00;100570.25;5039433;28;20049;-75
2023/09/27 06:19:49;;;;;;;13.20;4.38;;;;;;;14.30;100.00;100574.19;5030216;28;20036;-75
2023/09/27 06:22:34;;;;;;;12.13;4.50;;;;;;;14.31;100.00;100559.06;5059035;28;20381;-75
2023/09/27 06:25:19;;;;;;;10.73;3.90;;;;;;;14.31;100.00;100561.88;5018119;28;20066;-74
2023/09/27 06:28:03;;;;;;;10.25;4.00;;;;;;;14.27;100.00;100556.09;5037474;28;20092;-74
2023/09/27 06:30:47;;;;;;;9.30;3.78;;;;;;;14.24;100.00;100551.16;5059752;28;20043;-74
2023/09/27 06:33:33;;;;;;;11.02;4.05;;;;;;;14.25;100.00;100547.19;5027311;28;20049;-74
2023/09/27 06:36:20;;;;;;;10.38;4.60;;;;;;;14.23;100.00;100543.91;5043954;28;20044;-74
2023/09/27 06:39:07;;;;;;;11.85;4.35;;;;;;;14.23;100.00;100535.50;5033321;28;20074;-74
2023/09/27 06:41:52;;;;;;;8.90;3.67;;;;;;;14.24;100.00;100533.56;5058263;28;20043;-74
2023/09/27 06:44:37;;;;;;;10.82;4.22;;;;;;;14.24;100.00;100523.22;5059171;28;20504;-74
2023/09/27 06:47:20;;;;;;;8.52;3.67;;;;;;;14.23;100.00;100534.69;5044557;28;20094;-74
2023/09/27 06:50:05;;;;;;;11.82;4.13;;;;;;;14.29;100.00;100530.63;5001815;28;20064;-77
2023/09/27 06:52:49;;;;;;;11.38;4.50;;;;;;;14.28;100.00;100512.22;5029673;28;20056;-74
2023/09/27 06:55:34;;;;;;;12.55;4.18;;;;;;;14.26;100.00;100504.19;5058041;28;20040;-74
2023/09/27 06:58:23;;;;;;;7.47;3.47;;;;;;;14.29;100.00;100511.06;5029797;28;20110;-74
2023/09/27 07:01:07;;;;;;;8.27;3.78;;;;;;;14.35;100.00;100517.34;5031807;28;20504;-74
2023/09/27 07:03:51;;;;;;;9.82;3.97;;;;;;;14.42;100.00;100512.97;5030068;28;20103;-74
2023/09/27 07:06:35;;;;;;;12.60;3.88;;;;;;;14.49;100.00;100502.16;5031830;28;20043;-73
2023/09/27 07:09:20;;;;;;;16.17;4.22;;;;;;;14.52;100.00;100495.97;5050442;28;20551;-73
2023/09/27 07:12:05;;;;;;;14.18;4.43;;;;;;;14.59;100.00;100500.25;5012958;28;20119;-73
2023/09/27 07:14:49;;;;;;;10.82;3.55;;;;;;;14.69;100.00;100497.19;5029436;28;20567;-73
2023/09/27 07:17:34;;;;;;;11.00;3.92;;;;;;;14.74;100.00;100485.88;5009727;28;20071;-73
2023/09/27 07:20:24;;;;;;;12.60;4.47;;;;;;;14.81;100.00;100491.00;5035329;28;20037;-74
2023/09/27 07:23:14;;;;;;;14.32;4.68;;;;;;;14.85;100.00;100481.66;5028826;28;20505;-74
2023/09/27 07:25:58;;;;;;;15.00;4.13;;;;;;;14.91;100.00;100485.13;5009976;28;20063;-74
2023/09/27 07:28:43;;;;;;;11.15;3.45;;;;;;;14.98;100.00;100479.84;5018078;28;20099;-74
2023/09/27 07:31:29;;;;;;;12.25;3.78;;;;;;;15.05;100.00;100490.59;5021500;28;20047;-74
2023/09/27 07:34:14;;;;;;;10.73;3.53;;;;;;;15.10;100.00;100488.47;5020143;28;20107;-73
2023/09/27 07:36:59;;;;;;;12.05;4.07;;;;;;;15.17;100.00;100482.38;5008901;28;20043;-74
2023/09/27 07:39:44;;;;;;;10.18;3.60;;;;;;;15.29;100.00;100490.13;5017271;28;20045;-74
2023/09/27 07:42:30;;;;;;;14.02;3.47;;;;;;;15.37;100.00;100490.16;5027095;28;20116;-74
2023/09/27 07:45:21;;;;;;;13.02;3.75;;;;;;;15.50;100.00;100487.53;5023355;28;20076;-73
2023/09/27 07:48:05;;;;;;;9.80;3.40;;;;;;;15.62;100.00;100494.13;5023351;28;20099;-73
2023/09/27 07:50:49;;;;;;;12.10;3.58;;;;;;;15.76;100.00;100515.56;4994801;28;20048;-74
2023/09/27 07:53:33;;;;;;;12.07;3.80;;;;;;;15.84;100.00;100504.38;5018796;28;20076;-74
2023/09/27 07:56:19;;;;;;;14.90;3.65;;;;;;;15.92;100.00;100501.91;5020234;28;20045;-73
2023/09/27 07:59:04;;;;;;;12.15;3.65;;;;;;;16.00;100.00;100498.28;5017446;28;20478;-73
2023/09/27 08:01:49;;;;;;;8.20;3.30;;;;;;;16.06;100.00;100485.75;5003694;28;20104;-74
2023/09/27 08:04:33;;;;;;;8.75;3.20;;;;;;;16.11;100.00;100493.16;5006775;28;20072;-73
2023/09/27 08:07:18;;;;;;;14.82;4.47;;;;;;;16.16;100.00;100481.75;5008961;28;20037;-74
2023/09/27 08:10:02;;;;;;;7.90;3.20;;;;;;;16.18;100.00;100466.28;5035995;28;20044;-74
2023/09/27 08:12:47;;;;;;;11.02;3.50;;;;;;;16.26;100.00;100476.63;5037784;28;20456;-74
2023/09/27 08:15:31;;;;;;;12.80;3.85;;;;;;;16.34;100.00;100465.75;5028996;28;20040;-74
2023/09/27 08:18:16;;;;;;;12.38;4.18;;;;;;;16.39;100.00;100448.75;5042292;28;20090;-73
2023/09/27 08:21:01;;;;;;;14.52;3.72;;;;;;;16.48;100.00;100449.53;5042158;28;20048;-74
2023/09/27 08:23:45;;;;;;;20.65;4.72;;;;;;;16.56;100.00;100448.69;5026795;28;20076;-73
2023/09/27 08:26:29;;;;;;;17.85;4.60;;;;;;;16.67;100.00;100437.94;5028335;28;20048;-74
2023/09/27 08:29:14;;;;;;;10.82;3.88;;;;;;;16.74;100.00;100427.84;5009928;28;20513;-74
2023/09/27 08:31:58;;;;;;;11.85;4.30;;;;;;;16.89;100.00;100418.03;5036164;28;20036;-74
2023/09/27 08:34:42;;;;;;;16.10;3.92;;;;;;;17.01;100.00;100408.88;5057440;28;20040;-74
2023/09/27 08:37:27;;;;;;;9.82;3.20;;;;;;;17.13;100.00;100405.34;5030621;28;20120;-74
2023/09/27 08:40:15;;;;;;;15.65;4.00;;;;;;;17.28;100.00;100403.94;5041904;28;20436;-74
2023/09/27 08:43:00;;;;;;;10.88;4.03;;;;;;;17.45;100.00;100395.38;5028603;28;20039;-74
2023/09/27 08:45:45;;;;;;;11.70;4.15;;;;;;;17.63;100.00;100385.63;5018146;28;20397;-73
2023/09/27 08:48:29;;;;;;;14.55;3.90;;;;;;;17.82;100.00;100381.50;5049861;28;20060;-73
2023/09/27 08:51:13;;;;;;;10.50;3.70;;;;;;;18.01;100.00;100373.34;5027952;28;20393;-74
2023/09/27 08:53:57;;;;;;;15.15;3.92;;;;;;;18.17;100.00;100365.09;5028065;28;20133;-74
2023/09/27 08:56:53;;;;;;;13.00;3.90;;;;;;;18.34;100.00;100363.25;5036339;28;20108;-74
2023/09/27 08:59:38;;;;;;;11.95;4.03;;;;;;;18.47;100.00;100362.03;5029944;28;20444;-73
2023/09/27 09:02:24;;;;;;;11.20;3.63;;;;;;;18.60;100.00;100360.88;5042069;28;20047;-73
2023/09/27 09:05:12;;;;;;;9.95;4.03;;;;;;;18.71;100.00;100358.44;5028231;28;20039;-75
2023/09/27 09:07:56;;;;;;;11.70;4.25;;;;;;;18.83;100.00;100363.25;5028129;28;20500;-75
2023/09/27 09:10:42;;;;;;;11.95;4.47;;;;;;;18.95;100.00;100366.88;5055583;28;20444;-75
2023/09/27 09:13:26;;;;;;;10.75;4.30;;;;;;;19.04;100.00;100368.72;5041854;28;20527;-74
2023/09/27 09:16:14;;;;;;;11.48;3.80;;;;;;;19.10;100.00;100368.13;5024777;28;20107;-75
2023/09/27 09:18:59;;;;;;;8.70;3.60;;;;;;;19.19;100.00;100362.34;5040202;28;20139;-75
2023/09/27 09:21:43;;;;;;;12.15;3.78;;;;;;;19.26;100.00;100350.50;5027787;28;20043;-75
2023/09/27 09:24:28;;;;;;;12.10;4.18;;;;;;;19.32;100.00;100344.25;5029198;28;20067;-74
2023/09/27 09:27:15;;;;;;;12.05;3.97;;;;;;;19.38;100.00;100356.91;5041587;28;20048;-75
2023/09/27 09:30:02;;;;;;;10.70;3.75;;;;;;;19.42;100.00;100348.56;5041437;28;20068;-75
2023/09/27 09:32:48;;;;;;;12.40;4.65;;;;;;;19.50;100.00;100358.03;5031282;28;20039;-75
2023/09/27 09:35:32;;;;;;;12.38;3.83;;;;;;;19.59;100.00;100355.91;5040016;28;20446;-74
2023/09/27 09:38:30;;;;;;;8.85;3.88;;;;;;;19.69;100.00;100355.38;5035119;28;20384;-75
2023/09/27 09:41:14;;;;;;;12.48;4.03;;;;;;;19.78;100.00;100349.59;5059745;28;20161;-75
2023/09/27 09:43:58;;;;;;;10.35;3.63;;;;;;;19.90;100.00;100340.28;5034055;28;20115;-75
2023/09/27 09:46:44;;;;;;;11.32;3.58;;;;;;;19.98;100.00;100347.75;5029934;28;20070;-75
2023/09/27 09:49:29;;;;;;;11.73;3.65;;;;;;;20.09;100.00;100344.00;5039669;28;20064;-75
2023/09/27 09:52:13;;;;;;;11.30;3.20;;;;;;;20.18;100.00;100335.38;5045482;28;20048;-75
2023/09/27 09:54:57;;;;;;;10.85;3.88;;;;;;;20.28;100.00;100329.19;5045245;28;20036;-75
2023/09/27 09:57:41;;;;;;;9.52;3.35;;;;;;;20.38;100.00;100321.38;5045315;28;20051;-74
2023/09/27 10:00:26;;;;;;;11.77;3.70;;;;;;;20.48;100.00;100326.47;5020630;28;20045;-75
2023/09/27 10:03:14;;;;;;;10.73;3.65;;;;;;;20.57;100.00;100318.66;5067558;28;20045;-75
2023/09/27 10:06:02;;;;;;;9.88;3.45;;;;;;;20.65;100.00;100328.09;5033707;28;20071;-75
2023/09/27 10:08:47;;;;;;;10.10;3.22;;;;;;;20.68;100.00;100325.34;5025061;28;20044;-75
2023/09/27 10:11:33;;;;;;;8.15;3.30;;;;;;;20.72;100.00;100317.78;5058683;28;20047;-75
2023/09/27 10:14:18;;;;;;;10.95;3.03;;;;;;;20.73;100.00;100308.16;5009265;28;20047;-74
2023/09/27 10:17:02;;;;;;;6.90;3.35;;;;;;;20.78;100.00;100304.19;5031380;28;20036;-75
2023/09/27 10:20:12;;;;;;;11.85;3.47;;;;;;;20.79;100.00;100294.56;5017664;28;20389;-74
2023/09/27 10:22:56;;;;;;;8.05;3.10;;;;;;;20.80;100.00;100295.38;5025820;28;20102;-74
2023/09/27 10:25:40;;;;;;;10.18;3.40;;;;;;;20.80;100.00;100293.38;5047994;28;20539;-74
2023/09/27 10:28:24;;;;;;;9.38;3.53;;;;;;;20.80;100.00;100284.09;5022003;28;20468;-75
2023/09/27 10:31:09;;;;;;;7.97;3.28;;;;;;;20.82;100.00;100282.53;5044444;28;20052;-75
2023/09/27 10:33:53;;;;;;;11.20;3.50;;;;;;;20.84;100.00;100290.63;5029758;28;20051;-75
2023/09/27 10:36:38;;;;;;;10.15;3.10;;;;;;;20.87;100.00;100287.09;4997525;28;20069;-75
2023/09/27 10:39:22;;;;;;;10.93;3.22;;;;;;;20.92;100.00;100309.34;5032627;28;20488;-75
2023/09/27 10:42:07;;;;;;;11.45;3.83;;;;;;;20.92;100.00;100312.19;5003682;28;20047;-75
2023/09/27 10:44:51;;;;;;;7.15;3.58;;;;;;;20.95;100.00;100311.47;5044797;28;20417;-75
2023/09/27 10:47:35;;;;;;;8.65;3.17;;;;;;;21.04;100.00;100305.59;5044568;28;20068;-75
2023/09/27 10:50:27;;;;;;;9.65;2.97;;;;;;;21.10;100.00;100298.47;5017916;28;20039;-75
2023/09/27 10:53:11;;;;;;;8.48;3.63;;;;;;;21.13;100.00;100286.44;5042836;28;20056;-75
2023/09/27 10:55:55;;;;;;;10.38;3.55;;;;;;;21.17;100.00;100261.91;5046913;28;20093;-74
2023/09/27 10:58:52;;;;;;;11.05;3.75;;;;;;;21.20;100.00;100242.22;5013673;28;20036;-74
2023/09/27 11:01:36;;;;;;;11.38;3.83;;;;;;;21.23;100.00;100243.47;5027646;28;20164;-74
2023/09/27 11:04:23;;;;;;;8.77;3.53;;;;;;;21.24;100.00;100222.50;5023965;28;20083;-74
2023/09/27 11:07:07;;;;;;;8.25;3.67;;;;;;;21.29;100.00;100227.88;5013483;28;20073;-74
2023/09/27 11:09:52;;;;;;;9.40;3.60;;;;;;;21.32;100.00;100238.41;5020286;28;20547;-75
2023/09/27 11:12:36;;;;;;;10.70;4.00;;;;;;;21.35;100.00;100236.84;5013050;28;20524;-72
2023/09/27 11:15:24;;;;;;;6.45;3.05;;;;;;;21.38;100.00;100264.38;5023183;28;20052;-73
2023/09/27 11:18:08;;;;;;;9.20;3.63;;;;;;;21.43;100.00;100261.25;5012291;28;20044;-73
2023/09/27 11:20:52;;;;;;;8.88;3.75;;;;;;;21.48;100.00;100260.94;5011279;28;20097;-73
2023/09/27 11:23:55;;;;;;;8.52;3.97;;;;;;;21.55;100.00;100261.06;5018322;28;20486;-73
2023/09/27 11:26:42;;;;;;;9.30;3.20;;;;;;;21.58;100.00;100242.56;5017088;28;20061;-72
2023/09/27 11:29:26;;;;;;;6.90;3.60;;;;;;;21.68;100.00;100250.41;4998263;28;20122;-73
2023/09/27 11:32:10;;;;;;;11.07;3.97;;;;;;;21.75;100.00;100229.94;5023562;28;20051;-72
2023/09/27 11:34:55;;;;;;;7.93;3.97;;;;;;;21.82;100.00;100222.41;5023380;28;20183;-73
2023/09/27 11:37:39;;;;;;;9.48;4.13;;;;;;;21.91;100.00;100219.31;4996273;28;20068;-72
2023/09/27 11:40:37;;;;;;;7.68;3.50;;;;;;;22.00;100.00;100211.38;5023515;28;20389;-73
2023/09/27 11:43:31;;;;;;;8.65;3.53;;;;;;;22.09;100.00;100200.66;5023810;28;20568;-72
2023/09/27 11:46:26;;;;;;;9.55;3.78;;;;;;;22.21;100.00;100216.63;5023597;28;20504;-72
2023/09/27 11:49:10;;;;;;;9.02;3.70;;;;;;;22.32;100.00;100196.16;5009986;28;20071;-72
2023/09/27 11:51:54;;;;;;;9.13;3.80;;;;;;;22.40;100.00;100215.69;5003476;28;20041;-72
2023/09/27 11:54:42;;;;;;;7.95;3.88;;;;;;;22.49;100.00;100212.59;5032553;28;20043;-73
2023/09/27 11:57:26;;;;;;;9.90;3.55;;;;;;;22.55;100.00;100207.41;5016563;28;20103;-72
2023/09/27 12:00:15;;;;;;;12.15;3.72;;;;;;;22.61;100.00;100211.53;5012232;28;20039;-73
2023/09/27 12:02:59;;;;;;;10.40;4.40;;;;;;;22.67;100.00;100210.78;5008774;28;20067;-72
2023/09/27 12:05:44;;;;;;;6.40;3.42;;;;;;;22.68;100.00;100201.13;5018225;28;20498;-73
2023/09/27 12:08:28;;;;;;;9.70;3.70;;;;;;;22.76;100.00;100190.69;5011741;28;20081;-72
2023/09/27 12:11:12;;;;;;;7.18;3.53;;;;;;;22.84;100.00;100192.41;5005533;28;20044;-73
2023/09/27 12:13:57;;;;;;;8.13;4.07;;;;;;;22.87;100.00;100185.16;5003673;28;20057;-73
2023/09/27 12:16:42;;;;;;;7.68;3.90;;;;;;;22.95;100.00;100182.06;5013411;28;20104;-72
2023/09/27 12:19:25;;;;;;;8.10;4.00;;;;;;;22.94;100.00;100174.75;5007332;28;20037;-72
2023/09/27 12:22:13;;;;;;;7.80;3.45;;;;;;;23.00;100.00;100177.28;5008722;28;20060;-72
2023/09/27 12:24:57;;;;;;;9.10;4.43;;;;;;;23.05;100.00;100166.41;5027920;28;20075;-72
2023/09/27 12:27:41;;;;;;;8.10;3.70;;;;;;;23.08;100.00;100174.13;5022177;28;20039;-72
2023/09/27 12:30:27;;;;;;;7.72;3.72;;;;;;;23.14;100.00;100171.78;5022725;28;20492;-72
2023/09/27 12:33:15;;;;;;;6.00;3.55;;;;;;;23.14;100.00;100163.28;5022485;28;20039;-72